createdAt,value
2019-02-07T00:01:49.658Z,18.83
2019-02-07T00:04:54.576Z,19.60
2019-02-07T00:07:59.716Z,17.97
2019-02-07T00:11:04.632Z,19.80
2019-02-07T00:14:09.505Z,17.73
2019-02-07T00:17:14.399Z,19.47
2019-02-07T00:20:19.958Z,18.87
2019-02-07T00:23:24.917Z,17.23
2019-02-07T00:26:30.356Z,17.50
2019-02-07T00:29:35.898Z,16.03
2019-02-07T00:32:43.343Z,15.60
2019-02-07T00:35:48.424Z,16.57
2019-02-07T00:38:53.622Z,18.33
2019-02-07T00:41:58.592Z,15.80
2019-02-07T00:45:03.776Z,18.43
2019-02-07T00:48:08.993Z,18.37
2019-02-07T00:51:13.993Z,18.70
2019-02-07T00:54:18.908Z,18.67
2019-02-07T00:57:26.917Z,18.50
2019-02-07T01:00:33.080Z,18.67
2019-02-07T01:03:38.179Z,18.83
2019-02-07T01:06:43.133Z,20.80
2019-02-07T01:09:48.829Z,17.00
2019-02-07T01:12:53.770Z,16.60
2019-02-07T01:15:58.707Z,17.63
2019-02-07T01:19:03.821Z,18.00
2019-02-07T01:22:08.881Z,19.50
2019-02-07T01:25:16.268Z,17.60
2019-02-07T01:28:21.221Z,20.27
2019-02-07T01:31:26.013Z,18.60
2019-02-07T01:34:31.222Z,19.70
2019-02-07T01:37:36.102Z,21.87
2019-02-07T01:40:41.166Z,19.27
2019-02-07T01:43:46.242Z,20.10
2019-02-07T01:46:51.222Z,18.87
2019-02-07T01:49:56.468Z,18.30
2019-02-07T01:53:01.577Z,19.20
2019-02-07T01:56:06.562Z,19.53
2019-02-07T01:59:11.840Z,18.60
2019-02-07T02:02:16.929Z,19.70
2019-02-07T02:05:21.999Z,19.83
2019-02-07T02:08:27.176Z,18.83
2019-02-07T02:11:32.152Z,18.80
2019-02-07T02:14:37.062Z,19.10
2019-02-07T02:17:41.945Z,19.43
2019-02-07T02:20:46.887Z,18.73
2019-02-07T02:23:51.889Z,16.97
2019-02-07T02:26:56.864Z,17.70
2019-02-07T02:30:01.847Z,18.97
2019-02-07T02:33:07.183Z,17.97
2019-02-07T02:36:12.175Z,18.50
2019-02-07T02:39:16.905Z,18.27
2019-02-07T02:42:21.802Z,18.53
2019-02-07T02:45:37.217Z,19.30
2019-02-07T02:48:34.656Z,19.87
2019-02-07T02:51:39.680Z,18.63
2019-02-07T02:54:48.041Z,19.07
2019-02-07T02:57:52.977Z,19.53
2019-02-07T03:01:22.571Z,17.40
2019-02-07T03:04:42.160Z,18.27
2019-02-07T03:08:18.496Z,17.50
2019-02-07T03:11:57.835Z,19.10
2019-02-07T03:15:20.321Z,17.73
2019-02-07T03:18:44.233Z,18.53
2019-02-07T03:22:02.948Z,18.23
2019-02-07T03:25:38.785Z,18.77
2019-02-07T03:29:01.973Z,20.47
2019-02-07T03:32:25.038Z,17.87
2019-02-07T03:35:44.010Z,18.20
2019-02-07T03:39:17.148Z,18.40
2019-02-07T03:42:59.177Z,17.80
2019-02-07T03:46:12.686Z,17.33
2019-02-07T03:49:31.206Z,18.37
2019-02-07T03:52:55.024Z,19.50
2019-02-07T03:56:34.210Z,17.77
2019-02-07T04:00:04.367Z,18.30
2019-02-07T04:03:16.857Z,17.33
2019-02-07T04:06:39.313Z,18.13
2019-02-07T04:10:03.693Z,18.47
2019-02-07T04:13:45.732Z,18.47
2019-02-07T04:17:21.186Z,17.27
2019-02-07T04:20:45.508Z,16.90
2019-02-07T04:24:18.296Z,16.30
2019-02-07T04:27:40.493Z,17.37
2019-02-07T04:31:08.036Z,18.53
2019-02-07T04:34:30.865Z,17.67
2019-02-07T04:38:04.348Z,16.40
2019-02-07T04:41:31.424Z,17.13
2019-02-07T04:44:54.096Z,17.63
2019-02-07T04:48:15.464Z,18.63
2019-02-07T04:51:39.656Z,16.53
2019-02-07T04:55:09.465Z,17.23
2019-02-07T04:58:31.653Z,17.00
2019-02-07T05:02:10.486Z,17.83
2019-02-07T05:05:31.776Z,16.50
2019-02-07T05:08:54.252Z,16.17
2019-02-07T05:12:27.379Z,17.43
2019-02-07T05:15:58.061Z,17.07
2019-02-07T05:19:20.428Z,16.90
2019-02-07T05:22:51.048Z,18.43
2019-02-07T05:26:13.452Z,18.00
2019-02-07T05:29:44.389Z,19.53
2019-02-07T05:33:05.366Z,16.73
2019-02-07T05:36:28.472Z,17.33
2019-02-07T05:39:51.240Z,18.17
2019-02-07T05:43:23.540Z,18.20
2019-02-07T05:46:51.228Z,18.20
2019-02-07T05:50:14.861Z,18.60
2019-02-07T05:53:47.905Z,18.30
2019-02-07T05:57:02.091Z,18.03
2019-02-07T06:00:28.935Z,18.20
2019-02-07T06:03:57.335Z,18.43
2019-02-07T06:07:20.285Z,19.70
2019-02-07T06:10:47.362Z,18.67
2019-02-07T06:14:09.995Z,19.03
2019-02-07T06:17:33.994Z,19.77
2019-02-07T06:20:50.798Z,19.60
2019-02-07T06:24:20.704Z,19.07
2019-02-07T06:27:43.612Z,19.00
2019-02-07T06:31:13.344Z,21.37
2019-02-07T06:34:40.234Z,22.20
2019-02-07T06:38:19.529Z,19.83
2019-02-07T06:41:42.130Z,20.23
2019-02-07T06:45:06.267Z,21.80
2019-02-07T06:48:28.951Z,20.77
2019-02-07T06:51:55.433Z,21.57
2019-02-07T06:55:17.919Z,22.13
2019-02-07T06:58:45.355Z,24.33
2019-02-07T07:02:18.112Z,23.90
2019-02-07T07:05:46.619Z,23.93
2019-02-07T07:09:18.136Z,22.20
2019-02-07T07:12:42.010Z,23.50
2019-02-07T07:16:08.736Z,25.00
2019-02-07T07:19:41.368Z,23.63
2019-02-07T07:23:17.480Z,28.00
2019-02-07T07:26:45.647Z,25.00
2019-02-07T07:30:08.652Z,24.37
2019-02-07T07:33:45.042Z,23.03
2019-02-07T07:37:11.983Z,25.17
2019-02-07T07:40:34.834Z,23.87
2019-02-07T07:43:50.636Z,25.63
2019-02-07T07:47:07.315Z,27.43
2019-02-07T07:50:35.249Z,26.83
2019-02-07T07:53:59.359Z,26.67
2019-02-07T07:57:35.645Z,29.90
2019-02-07T08:00:59.581Z,27.87
2019-02-07T08:04:23.773Z,25.80
2019-02-07T08:07:48.119Z,26.20
2019-02-07T08:11:12.386Z,26.57
2019-02-07T08:14:30.738Z,27.07
2019-02-07T08:17:56.197Z,27.90
2019-02-07T08:21:19.882Z,28.53
2019-02-07T08:24:43.809Z,24.83
2019-02-07T08:28:09.656Z,25.40
2019-02-07T08:31:49.032Z,24.40
2019-02-07T08:35:11.945Z,25.00
2019-02-07T08:38:31.242Z,24.63
2019-02-07T08:41:54.094Z,25.30
2019-02-07T08:45:16.742Z,23.37
2019-02-07T08:48:46.551Z,23.47
2019-02-07T08:52:10.485Z,23.40
2019-02-07T08:55:37.264Z,26.37
2019-02-07T08:59:01.215Z,25.90
2019-02-07T09:02:31.372Z,24.87
2019-02-07T09:06:02.157Z,23.87
2019-02-07T09:09:24.852Z,24.63
2019-02-07T09:12:42.919Z,23.17
2019-02-07T09:16:02.245Z,22.30
2019-02-07T09:19:29.037Z,22.20
2019-02-07T09:22:59.151Z,21.93
2019-02-07T09:26:23.008Z,23.23
2019-02-07T09:29:50.014Z,21.60
2019-02-07T09:33:16.603Z,23.47
2019-02-07T09:36:45.720Z,22.43
2019-02-07T09:40:00.041Z,22.70
2019-02-07T09:43:18.522Z,23.17
2019-02-07T09:46:51.387Z,24.83
2019-02-07T09:50:23.462Z,21.37
2019-02-07T09:53:47.313Z,23.43
2019-02-07T09:57:13.950Z,23.13
2019-02-07T10:00:36.329Z,24.60
2019-02-07T10:04:12.493Z,24.63
2019-02-07T10:07:27.279Z,27.37
2019-02-07T10:10:51.788Z,27.27
2019-02-07T10:14:14.786Z,29.10
2019-02-07T10:17:41.836Z,28.70
2019-02-07T10:21:12.135Z,32.67
2019-02-07T10:24:30.865Z,33.87
2019-02-07T10:27:52.599Z,31.20
2019-02-07T10:31:31.434Z,32.50
2019-02-07T10:34:54.723Z,32.00
2019-02-07T10:38:09.657Z,31.07
2019-02-07T10:41:32.823Z,29.33
2019-02-07T10:44:56.760Z,32.77
2019-02-07T10:48:20.626Z,30.00
2019-02-07T10:51:43.300Z,26.13
2019-02-07T10:55:13.598Z,24.43
2019-02-07T10:58:37.386Z,27.03
2019-02-07T11:02:01.853Z,25.10
2019-02-07T11:05:29.300Z,22.83
2019-02-07T11:08:59.278Z,20.80
2019-02-07T11:12:39.907Z,21.67
2019-02-07T11:16:03.197Z,21.80
2019-02-07T11:19:26.776Z,20.00
2019-02-07T11:22:53.746Z,20.70
2019-02-07T11:26:16.325Z,20.07
2019-02-07T11:29:40.584Z,20.80
2019-02-07T11:33:13.313Z,17.93
2019-02-07T11:36:39.971Z,17.90
2019-02-07T11:40:09.297Z,18.70
2019-02-07T11:43:35.004Z,19.30
2019-02-07T11:47:17.028Z,20.10
2019-02-07T11:51:16.458Z,18.97
2019-02-07T11:54:40.616Z,18.70
2019-02-07T11:58:03.369Z,20.17
2019-02-07T12:01:42.642Z,20.40
2019-02-07T12:05:14.227Z,20.23
2019-02-07T12:08:39.373Z,20.43
2019-02-07T12:12:08.533Z,18.50
2019-02-07T12:15:31.424Z,20.67
2019-02-07T12:18:55.220Z,23.40
2019-02-07T12:22:12.452Z,22.40
2019-02-07T12:25:54.706Z,22.30
2019-02-07T12:29:30.364Z,20.53
2019-02-07T12:33:04.692Z,20.97
2019-02-07T12:36:27.429Z,22.10
2019-02-07T12:39:57.871Z,21.30
2019-02-07T12:43:27.861Z,21.80
2019-02-07T12:46:51.730Z,21.57
2019-02-07T12:50:27.290Z,21.00
2019-02-07T12:54:00.230Z,21.87
2019-02-07T12:57:27.312Z,21.00
2019-02-07T13:00:50.180Z,20.90
2019-02-07T13:04:14.000Z,20.00
2019-02-07T13:07:36.686Z,19.30
2019-02-07T13:11:12.817Z,20.73
2019-02-07T13:14:46.017Z,21.00
2019-02-07T13:18:10.252Z,20.47
2019-02-07T13:21:29.866Z,20.03
2019-02-07T13:24:56.788Z,18.90
2019-02-07T13:28:20.572Z,18.27
2019-02-07T13:32:02.985Z,19.10
2019-02-07T13:35:26.835Z,21.77
2019-02-07T13:39:05.822Z,20.40
2019-02-07T13:42:39.186Z,18.97
2019-02-07T13:46:02.249Z,20.07
2019-02-07T13:49:32.059Z,19.10
2019-02-07T13:53:10.646Z,18.40
2019-02-07T13:56:35.212Z,18.97
2019-02-07T13:59:57.586Z,19.27
2019-02-07T14:03:24.499Z,17.67
2019-02-07T14:06:50.004Z,19.00
2019-02-07T14:10:20.073Z,16.30
2019-02-07T14:14:04.724Z,17.57
2019-02-07T14:17:34.574Z,16.77
2019-02-07T14:20:58.338Z,17.23
2019-02-07T14:24:43.695Z,16.83
2019-02-07T14:28:10.598Z,15.50
2019-02-07T14:31:32.839Z,15.17
2019-02-07T14:35:02.616Z,15.57
2019-02-07T14:38:21.302Z,15.50
2019-02-07T14:41:42.555Z,15.97
2019-02-07T14:45:21.544Z,16.20
2019-02-07T14:48:27.376Z,15.80
2019-02-07T14:51:32.222Z,15.73
2019-02-07T14:54:37.109Z,17.60
2019-02-07T14:57:42.136Z,15.13
2019-02-07T15:00:47.493Z,15.67
2019-02-07T15:03:52.473Z,15.93
2019-02-07T15:06:57.721Z,16.60
2019-02-07T15:10:02.847Z,16.30
2019-02-07T15:13:07.675Z,18.30
2019-02-07T15:16:12.967Z,17.43
2019-02-07T15:19:17.998Z,17.30
2019-02-07T15:22:23.245Z,17.27
2019-02-07T15:25:28.234Z,16.57
2019-02-07T15:28:33.287Z,16.80
2019-02-07T15:31:38.336Z,15.87
2019-02-07T15:34:43.385Z,18.40
2019-02-07T15:37:48.705Z,16.63
2019-02-07T15:40:54.942Z,18.70
2019-02-07T15:44:00.125Z,17.87
2019-02-07T15:47:08.838Z,16.30
2019-02-07T15:50:19.368Z,18.70
2019-02-07T15:53:25.060Z,18.40
2019-02-07T15:56:30.023Z,25.73
2019-02-07T15:59:57.026Z,18.50
2019-02-07T16:03:05.980Z,18.67
2019-02-07T16:06:11.234Z,17.90
2019-02-07T16:09:16.901Z,17.40
2019-02-07T16:12:22.167Z,19.27
2019-02-07T16:15:27.186Z,18.77
2019-02-07T16:18:32.133Z,17.03
2019-02-07T16:21:38.092Z,18.27
2019-02-07T16:24:43.028Z,18.87
2019-02-07T16:27:47.709Z,20.83
2019-02-07T16:30:52.759Z,19.03
2019-02-07T16:33:57.900Z,19.73
2019-02-07T16:37:03.984Z,22.60
2019-02-07T16:40:09.937Z,20.60
2019-02-07T16:43:14.981Z,19.47
2019-02-07T16:46:20.011Z,20.03
2019-02-07T16:49:25.269Z,19.00
2019-02-07T16:52:30.574Z,19.53
2019-02-07T16:55:35.713Z,19.10
2019-02-07T16:58:40.599Z,18.90
2019-02-07T17:01:45.625Z,20.17
2019-02-07T17:04:50.587Z,18.10
2019-02-07T17:07:55.941Z,20.83
2019-02-07T17:11:01.266Z,19.53
2019-02-07T17:14:06.999Z,18.60
2019-02-07T17:17:11.937Z,21.33
2019-02-07T17:20:22.716Z,20.00
2019-02-07T17:23:27.783Z,20.27
2019-02-07T17:26:33.181Z,20.00
2019-02-07T17:29:38.247Z,19.90
2019-02-07T17:32:43.380Z,23.43
2019-02-07T17:35:50.157Z,28.37
2019-02-07T17:38:55.200Z,24.03
2019-02-07T17:42:00.460Z,24.07
2019-02-07T17:45:06.190Z,23.20
2019-02-07T17:48:11.345Z,20.30
2019-02-07T17:51:22.827Z,21.57
2019-02-07T17:54:23.014Z,20.80
2019-02-07T17:57:30.798Z,21.90
2019-02-07T18:00:43.632Z,22.17
2019-02-07T18:03:48.567Z,21.00
2019-02-07T18:06:53.857Z,23.40
2019-02-07T18:09:59.058Z,22.63
2019-02-07T18:13:04.257Z,22.33
2019-02-07T18:16:09.615Z,24.10
2019-02-07T18:19:14.858Z,22.67
2019-02-07T18:22:20.104Z,23.10
2019-02-07T18:25:25.215Z,22.47
2019-02-07T18:28:30.411Z,23.57
2019-02-07T18:31:35.425Z,21.93
2019-02-07T18:34:40.568Z,23.43
2019-02-07T18:37:46.699Z,23.43
2019-02-07T18:40:51.997Z,22.37
2019-02-07T18:43:56.952Z,22.60
2019-02-07T18:47:02.023Z,21.83
2019-02-07T18:50:09.508Z,21.53
2019-02-07T18:53:14.887Z,26.97
2019-02-07T18:56:20.318Z,27.27
2019-02-07T18:59:25.241Z,24.30
2019-02-07T19:02:30.209Z,24.30
2019-02-07T19:05:35.633Z,23.77
2019-02-07T19:08:40.803Z,24.27
2019-02-07T19:11:46.086Z,22.93
2019-02-07T19:14:51.218Z,25.37
2019-02-07T19:17:56.364Z,25.10
2019-02-07T19:21:05.117Z,27.17
2019-02-07T19:24:13.728Z,25.30
2019-02-07T19:27:19.075Z,26.40
2019-02-07T19:30:29.537Z,26.37
2019-02-07T19:33:34.462Z,27.30
2019-02-07T19:36:39.765Z,24.47
2019-02-07T19:39:44.898Z,23.60
2019-02-07T19:42:50.119Z,24.50
2019-02-07T19:45:55.469Z,25.77
2019-02-07T19:49:00.801Z,25.50
2019-02-07T19:52:08.078Z,25.83
2019-02-07T19:55:15.381Z,25.77
2019-02-07T19:58:20.413Z,26.43
2019-02-07T20:01:25.548Z,27.03
2019-02-07T20:04:31.025Z,26.10
2019-02-07T20:07:36.072Z,28.03
2019-02-07T20:10:41.343Z,26.67
2019-02-07T20:13:46.653Z,25.47
2019-02-07T20:16:51.711Z,28.67
2019-02-07T20:19:57.216Z,24.20
2019-02-07T20:23:02.189Z,23.97
2019-02-07T20:26:07.290Z,24.87
2019-02-07T20:29:12.245Z,26.20
2019-02-07T20:32:17.382Z,27.23
2019-02-07T20:35:22.439Z,28.07
2019-02-07T20:38:27.481Z,27.43
2019-02-07T20:41:32.552Z,28.20
2019-02-07T20:44:37.582Z,26.47
2019-02-07T20:47:43.401Z,27.37
2019-02-07T20:50:51.327Z,27.43
2019-02-07T20:53:56.355Z,28.70
2019-02-07T20:57:01.421Z,26.87
2019-02-07T21:00:11.843Z,27.97
2019-02-07T21:32:14.095Z,29.70
2019-02-07T21:35:19.764Z,27.27
2019-02-07T21:38:24.918Z,32.00
2019-02-07T21:41:30.423Z,27.47
2019-02-07T21:44:35.546Z,32.63
2019-02-07T21:47:41.228Z,26.77
2019-02-07T21:50:46.471Z,27.00
2019-02-07T21:53:51.601Z,31.63
2019-02-07T21:56:56.604Z,29.07
2019-02-07T22:00:01.842Z,28.37
2019-02-07T22:03:08.256Z,31.57
2019-02-07T22:06:13.392Z,27.90
2019-02-07T22:09:18.726Z,29.10
2019-02-07T22:12:23.950Z,27.40
2019-02-07T22:15:29.134Z,27.90
2019-02-07T22:18:34.463Z,29.03
2019-02-07T22:21:39.674Z,27.83
2019-02-07T22:24:45.047Z,28.03
2019-02-07T22:27:49.943Z,30.87
2019-02-07T22:30:58.617Z,29.50
2019-02-07T22:34:03.644Z,28.50
2019-02-07T22:37:08.657Z,29.43
2019-02-07T22:40:16.512Z,25.57
2019-02-07T22:43:21.500Z,27.77
2019-02-07T22:46:26.551Z,28.07
2019-02-07T22:49:31.956Z,29.30
2019-02-07T22:52:36.859Z,28.20
2019-02-07T22:55:42.121Z,27.70
2019-02-07T22:58:47.330Z,26.50
2019-02-07T23:01:56.630Z,27.57
2019-02-07T23:05:01.727Z,28.30
2019-02-07T23:08:06.931Z,26.30
2019-02-07T23:11:12.057Z,25.27
2019-02-07T23:14:17.001Z,25.20
2019-02-07T23:17:21.894Z,25.87
2019-02-07T23:20:26.793Z,27.30
2019-02-07T23:23:31.740Z,26.07
2019-02-07T23:26:36.706Z,28.10
2019-02-07T23:29:41.734Z,28.00
2019-02-07T23:32:47.016Z,25.13
2019-02-07T23:35:51.950Z,26.90
2019-02-07T23:38:57.408Z,25.20
2019-02-07T23:42:02.614Z,27.00
2019-02-07T23:45:08.236Z,26.93
2019-02-07T23:48:13.643Z,25.90
2019-02-07T23:51:18.710Z,28.50
2019-02-07T23:54:23.824Z,27.07
2019-02-07T23:57:29.228Z,29.20
